DJR weather

Dajarra Airport
Queensland, Australia

Public forecast

Using degrees Celsius for public forecast. Weather courtesy of forecast.io.

METAR (pilot weather report)

Closest report is Mount Isa Airport, 62.8 nm (116.2 km) N. Retrieved 2019/04/21 22:00 UTC (8 minutes ago):

YBMA 212200Z AUTO 16007KT 9999 // NCD 23/11 Q1016

TAF (pilot weather forecast)

Closest forecast is Mount Isa Airport, 62.8 nm (116.2 km) N. Retrieved 2019/04/21 18:03 UTC (4 hours ago):

TAF TAF YBMA 211635Z 2118/2206 VRB05KT CAVOK